Time;durP1;ratioP1;P1;durP2;ratioP2;P2;SDS_P1;SDS_P2;PMS_P1;PMS_P2;Temp;Humidity;BMP_temperature;BMP_pressure;BME280_temperature;BME280_humidity;BME280_pressure;Samples;Min_cycle;Max_cycle;Signal;HPM_P1;HPM_P2
2024/02/20 00:00:23;;;;;;;;;;;;;;;;;;4963733;28;5509;-64
2024/02/20 00:02:48;;;;;;;;;;;;;;;;;;4957166;28;3639;-65
2024/02/20 00:05:14;;;;;;;;;;;;;;;;;;4961434;28;4799;-66
2024/02/20 00:07:40;;;;;;;;;;;;;;;;;;4966195;28;4984;-66
2024/02/20 00:10:10;;;;;;;;;;;;;;;;;;4953328;28;5247;-65
2024/02/20 00:12:42;;;;;;;;;;;;;;;;;;4965402;28;5867;-65
2024/02/20 00:15:07;;;;;;;;;;;;;;;;;;4959528;28;3353;-67
2024/02/20 00:17:36;;;;;;;;;;;;;;;;;;4955459;28;4854;-66
2024/02/20 00:20:03;;;;;;;;;;;;;;;;;;4963575;28;5118;-65
2024/02/20 00:22:28;;;;;;;;;;;;;;;;;;4964704;28;4948;-67
2024/02/20 00:24:53;;;;;;;;;;;;;;;;;;4966057;28;5064;-67
2024/02/20 00:27:19;;;;;;;;;;;;;;;;;;4956871;28;4664;-66
2024/02/20 00:29:44;;;;;;;;;;;;;;;;;;4961884;28;3948;-67
2024/02/20 00:32:09;;;;;;;;;;;;;;;;;;4961721;28;5360;-66
2024/02/20 00:34:35;;;;;;;;;;;;;;;;;;4967659;28;5012;-66
2024/02/20 00:37:00;;;;;;;;;;;;;;;;;;4964118;28;4550;-67
2024/02/20 00:39:27;;;;;;;;;;;;;;;;;;4969009;28;4506;-66
2024/02/20 00:41:52;;;;;;;;;;;;;;;;;;4963393;28;3304;-65
2024/02/20 00:44:19;;;;;;;;;;;;;;;;;;4962941;28;5094;-66
2024/02/20 00:46:44;;;;;;;;;;;;;;;;;;4959534;28;5193;-65
2024/02/20 00:49:10;;;;;;;;;;;;;;;;;;4961334;28;5096;-65
2024/02/20 00:51:35;;;;;;;;;;;;;;;;;;4960653;28;5495;-64
2024/02/20 00:54:00;;;;;;;;;;;;;;;;;;4966124;28;1138;-66
2024/02/20 00:56:26;;;;;;;;;;;;;;;;;;4963155;28;4529;-65
2024/02/20 00:58:51;;;;;;;;;;;;;;;;;;4956280;28;5186;-65
2024/02/20 01:01:17;;;;;;;;;;;;;;;;;;4944046;28;5128;-65
2024/02/20 01:03:43;;;;;;;;;;;;;;;;;;4962724;28;5120;-65
2024/02/20 01:06:08;;;;;;;;;;;;;;;;;;4964555;28;3382;-65
2024/02/20 01:08:34;;;;;;;;;;;;;;;;;;4955836;28;4625;-65
2024/02/20 01:11:00;;;;;;;;;;;;;;;;;;4958961;28;4692;-65
2024/02/20 01:13:25;;;;;;;;;;;;;;;;;;4957004;28;5163;-65
2024/02/20 01:15:50;;;;;;;;;;;;;;;;;;4956640;28;5158;-66
2024/02/20 01:18:16;;;;;;;;;;;;;;;;;;4959389;28;5153;-65
2024/02/20 01:20:41;;;;;;;;;;;;;;;;;;4961252;28;3812;-65
2024/02/20 01:23:06;;;;;;;;;;;;;;;;;;4962358;28;4894;-65
2024/02/20 01:25:32;;;;;;;;;;;;;;;;;;4947168;28;5669;-65
2024/02/20 01:27:57;;;;;;;;;;;;;;;;;;4962972;28;5321;-66
2024/02/20 01:30:23;;;;;;;;;;;;;;;;;;4962728;28;5074;-65
2024/02/20 01:32:48;;;;;;;;;;;;;;;;;;4958083;28;3314;-66
2024/02/20 01:35:14;;;;;;;;;;;;;;;;;;4944459;28;5100;-66
2024/02/20 01:37:41;;;;;;;;;;;;;;;;;;4958817;28;5071;-65
2024/02/20 01:40:08;;;;;;;;;;;;;;;;;;4962072;28;5091;-66
2024/02/20 01:42:35;;;;;;;;;;;;;;;;;;4965539;28;4678;-65
2024/02/20 01:45:00;;;;;;;;;;;;;;;;;;4964858;28;3338;-66
2024/02/20 01:47:26;;;;;;;;;;;;;;;;;;4956305;28;5057;-66
2024/02/20 01:49:51;;;;;;;;;;;;;;;;;;4957593;28;4735;-67
2024/02/20 01:52:16;;;;;;;;;;;;;;;;;;4965432;28;5182;-66
2024/02/20 01:54:42;;;;;;;;;;;;;;;;;;4956195;28;4525;-66
2024/02/20 01:57:07;;;;;;;;;;;;;;;;;;4950260;28;1324;-67
2024/02/20 01:59:34;;;;;;;;;;;;;;;;;;4961853;28;4484;-65
2024/02/20 02:01:59;;;;;;;;;;;;;;;;;;4964652;28;5186;-66
2024/02/20 02:04:24;;;;;;;;;;;;;;;;;;4958397;28;5252;-65
2024/02/20 02:06:49;;;;;;;;;;;;;;;;;;4954030;28;5201;-66
2024/02/20 02:09:15;;;;;;;;;;;;;;;;;;4960817;28;5065;-65
2024/02/20 02:11:40;;;;;;;;;;;;;;;;;;4968235;28;1027;-65
2024/02/20 02:14:06;;;;;;;;;;;;;;;;;;4960446;28;5049;-65
2024/02/20 02:16:31;;;;;;;;;;;;;;;;;;4943109;28;5350;-65
2024/02/20 02:18:57;;;;;;;;;;;;;;;;;;4958142;28;4556;-65
2024/02/20 02:21:22;;;;;;;;;;;;;;;;;;4940807;28;5211;-66
2024/02/20 02:23:47;;;;;;;;;;;;;;;;;;4954250;28;3514;-66
2024/02/20 02:26:13;;;;;;;;;;;;;;;;;;4954695;28;4939;-66
2024/02/20 02:28:38;;;;;;;;;;;;;;;;;;4958978;28;4601;-66
2024/02/20 02:31:03;;;;;;;;;;;;;;;;;;4956822;28;5033;-66
2024/02/20 02:33:30;;;;;;;;;;;;;;;;;;4940195;28;4959;-67
2024/02/20 02:35:59;;;;;;;;;;;;;;;;;;4955325;28;4053;-66
2024/02/20 02:38:24;;;;;;;;;;;;;;;;;;4952300;28;5342;-66
2024/02/20 02:40:49;;;;;;;;;;;;;;;;;;4955659;28;5158;-66
2024/02/20 02:43:14;;;;;;;;;;;;;;;;;;4960938;28;4597;-65
2024/02/20 02:45:41;;;;;;;;;;;;;;;;;;4960063;28;5235;-66
2024/02/20 02:48:06;;;;;;;;;;;;;;;;;;4959310;28;3463;-65
2024/02/20 02:50:32;;;;;;;;;;;;;;;;;;4943636;28;5076;-65
2024/02/20 02:52:57;;;;;;;;;;;;;;;;;;4945094;28;4549;-66
2024/02/20 02:55:25;;;;;;;;;;;;;;;;;;4955540;28;4698;-65
2024/02/20 02:57:50;;;;;;;;;;;;;;;;;;4960642;28;5101;-65
2024/02/20 03:00:16;;;;;;;;;;;;;;;;;;4957508;28;5118;-65
2024/02/20 03:02:41;;;;;;;;;;;;;;;;;;4964678;28;3573;-66
2024/02/20 03:05:07;;;;;;;;;;;;;;;;;;4959580;28;4952;-66
2024/02/20 03:07:33;;;;;;;;;;;;;;;;;;4963081;28;4515;-65
2024/02/20 03:09:58;;;;;;;;;;;;;;;;;;4959574;28;5253;-66
2024/02/20 03:12:24;;;;;;;;;;;;;;;;;;4957476;28;5218;-65
2024/02/20 03:14:51;;;;;;;;;;;;;;;;;;4955420;28;3300;-64
2024/02/20 03:17:16;;;;;;;;;;;;;;;;;;4962675;28;5158;-65
2024/02/20 03:19:41;;;;;;;;;;;;;;;;;;4954998;28;4678;-66
2024/02/20 03:22:09;;;;;;;;;;;;;;;;;;4961196;28;5086;-65
2024/02/20 03:24:36;;;;;;;;;;;;;;;;;;4960251;28;4921;-66
2024/02/20 03:27:02;;;;;;;;;;;;;;;;;;4955953;28;3311;-63
2024/02/20 03:29:27;;;;;;;;;;;;;;;;;;4953208;28;5000;-66
2024/02/20 03:31:53;;;;;;;;;;;;;;;;;;4959401;28;5163;-65
2024/02/20 03:34:19;;;;;;;;;;;;;;;;;;4956171;28;5021;-64
2024/02/20 03:36:44;;;;;;;;;;;;;;;;;;4957490;28;5175;-64
2024/02/20 03:39:10;;;;;;;;;;;;;;;;;;4956240;28;3442;-65
2024/02/20 03:41:36;;;;;;;;;;;;;;;;;;4939356;28;5174;-63
2024/02/20 03:44:01;;;;;;;;;;;;;;;;;;4956843;28;4566;-64
2024/02/20 03:46:26;;;;;;;;;;;;;;;;;;4957221;28;5155;-66
2024/02/20 03:48:52;;;;;;;;;;;;;;;;;;4955575;28;5179;-66
2024/02/20 03:51:18;;;;;;;;;;;;;;;;;;4958406;28;5145;-65
2024/02/20 03:53:43;;;;;;;;;;;;;;;;;;4956263;28;3482;-67
2024/02/20 03:56:12;;;;;;;;;;;;;;;;;;4959474;28;5134;-66
2024/02/20 03:58:37;;;;;;;;;;;;;;;;;;4960592;28;5069;-64
2024/02/20 04:01:03;;;;;;;;;;;;;;;;;;4962660;28;5105;-64
2024/02/20 04:03:28;;;;;;;;;;;;;;;;;;4962908;28;4524;-65
2024/02/20 04:05:54;;;;;;;;;;;;;;;;;;4959864;28;3256;-64
2024/02/20 04:08:19;;;;;;;;;;;;;;;;;;4957639;28;5069;-64
2024/02/20 04:10:44;;;;;;;;;;;;;;;;;;4964982;28;5432;-63
2024/02/20 04:13:10;;;;;;;;;;;;;;;;;;4956854;28;5305;-64
2024/02/20 04:15:36;;;;;;;;;;;;;;;;;;4961711;28;5055;-65
2024/02/20 04:18:01;;;;;;;;;;;;;;;;;;4966584;28;1229;-64
2024/02/20 04:20:27;;;;;;;;;;;;;;;;;;4960287;28;5110;-65
2024/02/20 04:22:52;;;;;;;;;;;;;;;;;;4943295;28;5123;-64
2024/02/20 04:25:17;;;;;;;;;;;;;;;;;;4965960;28;4566;-65
2024/02/20 04:27:44;;;;;;;;;;;;;;;;;;4961590;28;4569;-65
2024/02/20 04:30:10;;;;;;;;;;;;;;;;;;4969328;28;1488;-65
2024/02/20 04:32:35;;;;;;;;;;;;;;;;;;4960398;28;4786;-66
2024/02/20 04:35:01;;;;;;;;;;;;;;;;;;4955818;28;5123;-64
2024/02/20 04:37:26;;;;;;;;;;;;;;;;;;4967013;28;5091;-65
2024/02/20 04:39:51;;;;;;;;;;;;;;;;;;4966495;28;5066;-65
2024/02/20 04:42:21;;;;;;;;;;;;;;;;;;4963393;28;4682;-64
2024/02/20 04:44:46;;;;;;;;;;;;;;;;;;4966479;28;3308;-65
2024/02/20 04:47:11;;;;;;;;;;;;;;;;;;4957031;28;5316;-64
2024/02/20 04:49:37;;;;;;;;;;;;;;;;;;4958468;28;4687;-64
2024/02/20 04:52:03;;;;;;;;;;;;;;;;;;4941920;28;4693;-65
2024/02/20 04:54:28;;;;;;;;;;;;;;;;;;4964867;28;5160;-65
2024/02/20 04:56:53;;;;;;;;;;;;;;;;;;4957696;28;3323;-65
2024/02/20 04:59:21;;;;;;;;;;;;;;;;;;4952013;28;5494;-64
2024/02/20 05:01:48;;;;;;;;;;;;;;;;;;4941893;28;5141;-63
2024/02/20 05:04:13;;;;;;;;;;;;;;;;;;4956221;28;5406;-65
2024/02/20 05:06:39;;;;;;;;;;;;;;;;;;4958775;28;5198;-65
2024/02/20 05:09:05;;;;;;;;;;;;;;;;;;4954346;28;3404;-64
2024/02/20 05:11:30;;;;;;;;;;;;;;;;;;4960443;28;5111;-66
2024/02/20 05:13:56;;;;;;;;;;;;;;;;;;4956674;28;5956;-65
2024/02/20 05:16:21;;;;;;;;;;;;;;;;;;4959189;28;5186;-65
2024/02/20 05:18:46;;;;;;;;;;;;;;;;;;4958771;28;4896;-65
2024/02/20 05:21:12;;;;;;;;;;;;;;;;;;4953858;28;3495;-65
2024/02/20 05:23:37;;;;;;;;;;;;;;;;;;4937881;28;5042;-66
2024/02/20 05:26:02;;;;;;;;;;;;;;;;;;4965598;28;4554;-66
2024/02/20 05:28:27;;;;;;;;;;;;;;;;;;4965224;28;5744;-66
2024/02/20 05:30:53;;;;;;;;;;;;;;;;;;4964842;28;5413;-66
2024/02/20 05:33:18;;;;;;;;;;;;;;;;;;4966637;28;5230;-65
2024/02/20 05:35:44;;;;;;;;;;;;;;;;;;4960785;28;3654;-65
2024/02/20 05:38:10;;;;;;;;;;;;;;;;;;4958001;28;5188;-66
2024/02/20 05:40:35;;;;;;;;;;;;;;;;;;4959135;28;5178;-65
2024/02/20 05:43:01;;;;;;;;;;;;;;;;;;4962862;28;4738;-65
2024/02/20 05:45:26;;;;;;;;;;;;;;;;;;4962899;28;5085;-65
2024/02/20 05:47:51;;;;;;;;;;;;;;;;;;4957857;28;3612;-66
2024/02/20 05:50:17;;;;;;;;;;;;;;;;;;4962364;28;5131;-65
2024/02/20 05:52:42;;;;;;;;;;;;;;;;;;4965823;28;5149;-65
2024/02/20 05:55:08;;;;;;;;;;;;;;;;;;4955178;28;5169;-65
2024/02/20 05:57:33;;;;;;;;;;;;;;;;;;4962445;28;4968;-64
2024/02/20 05:59:58;;;;;;;;;;;;;;;;;;4948586;28;3243;-64
2024/02/20 06:02:24;;;;;;;;;;;;;;;;;;4958004;28;5210;-64
2024/02/20 06:04:49;;;;;;;;;;;;;;;;;;4960194;28;5181;-64
2024/02/20 06:07:17;;;;;;;;;;;;;;;;;;4964644;28;4611;-65
2024/02/20 06:09:43;;;;;;;;;;;;;;;;;;4965396;28;5036;-65
2024/02/20 06:12:11;;;;;;;;;;;;;;;;;;4932701;28;3932;-65
2024/02/20 06:14:37;;;;;;;;;;;;;;;;;;4954049;28;4613;-63
2024/02/20 06:17:02;;;;;;;;;;;;;;;;;;4959182;28;4503;-66
2024/02/20 06:19:27;;;;;;;;;;;;;;;;;;4943105;28;5168;-67
2024/02/20 06:21:53;;;;;;;;;;;;;;;;;;4961305;28;5126;-66
2024/02/20 06:24:18;;;;;;;;;;;;;;;;;;4955784;28;5307;-66
2024/02/20 06:26:43;;;;;;;;;;;;;;;;;;4960920;28;3476;-67
2024/02/20 06:29:11;;;;;;;;;;;;;;;;;;4945346;28;6022;-67
2024/02/20 06:31:36;;;;;;;;;;;;;;;;;;4963244;28;5311;-66
2024/02/20 06:34:07;;;;;;;;;;;;;;;;;;4960506;28;5271;-65
2024/02/20 06:36:32;;;;;;;;;;;;;;;;;;4955201;28;4523;-67
2024/02/20 06:38:57;;;;;;;;;;;;;;;;;;4963983;28;3350;-66
2024/02/20 06:41:23;;;;;;;;;;;;;;;;;;4964576;28;5083;-66
2024/02/20 06:43:48;;;;;;;;;;;;;;;;;;4962962;28;5214;-67
2024/02/20 06:46:13;;;;;;;;;;;;;;;;;;4943307;28;4876;-62
2024/02/20 06:48:39;;;;;;;;;;;;;;;;;;4964263;28;5168;-62
2024/02/20 06:51:04;;;;;;;;;;;;;;;;;;4957147;28;3518;-61
2024/02/20 06:53:29;;;;;;;;;;;;;;;;;;4958309;28;5138;-61
2024/02/20 06:55:55;;;;;;;;;;;;;;;;;;4959336;28;4487;-60
2024/02/20 06:58:20;;;;;;;;;;;;;;;;;;4961500;28;4603;-62
2024/02/20 07:00:46;;;;;;;;;;;;;;;;;;4958592;28;5021;-61
2024/02/20 07:03:12;;;;;;;;;;;;;;;;;;4961820;28;3360;-62
2024/02/20 07:05:37;;;;;;;;;;;;;;;;;;4962259;28;5015;-60
2024/02/20 07:08:03;;;;;;;;;;;;;;;;;;4944619;28;4935;-62
2024/02/20 07:10:29;;;;;;;;;;;;;;;;;;4961406;28;4704;-60
2024/02/20 07:12:57;;;;;;;;;;;;;;;;;;4961445;28;5329;-60
2024/02/20 07:15:23;;;;;;;;;;;;;;;;;;4963400;28;4808;-62
2024/02/20 07:17:48;;;;;;;;;;;;;;;;;;4960574;28;3759;-61
2024/02/20 07:20:13;;;;;;;;;;;;;;;;;;4944899;28;5106;-60
2024/02/20 07:22:39;;;;;;;;;;;;;;;;;;4963958;28;5327;-61
2024/02/20 07:25:04;;;;;;;;;;;;;;;;;;4965035;28;4969;-63
2024/02/20 07:27:30;;;;;;;;;;;;;;;;;;4965630;28;5070;-61
2024/02/20 07:29:55;;;;;;;;;;;;;;;;;;4968202;28;1283;-61
2024/02/20 07:32:20;;;;;;;;;;;;;;;;;;4962615;28;4867;-62
2024/02/20 07:34:50;;;;;;;;;;;;;;;;;;4967477;28;4685;-60
2024/02/20 07:37:15;;;;;;;;;;;;;;;;;;4968445;28;5143;-61
2024/02/20 07:39:41;;;;;;;;;;;;;;;;;;4964803;28;5086;-61
2024/02/20 07:42:09;;;;;;;;;;;;;;;;;;4962423;28;1084;-60
2024/02/20 07:44:34;;;;;;;;;;;;;;;;;;4968107;28;5292;-60
2024/02/20 07:47:00;;;;;;;;;;;;;;;;;;4970297;28;5204;-62
2024/02/20 07:49:25;;;;;;;;;;;;;;;;;;4968608;28;5175;-62
2024/02/20 07:51:50;;;;;;;;;;;;;;;;;;4968863;28;4580;-61
2024/02/20 07:54:16;;;;;;;;;;;;;;;;;;4970580;28;5615;-63
2024/02/20 07:56:42;;;;;;;;;;;;;;;;;;4968106;28;3663;-61
2024/02/20 07:59:07;;;;;;;;;;;;;;;;;;4960475;28;5010;-61
2024/02/20 08:01:33;;;;;;;;;;;;;;;;;;4947156;28;4863;-61
2024/02/20 08:03:58;;;;;;;;;;;;;;;;;;4969249;28;5162;-59
2024/02/20 08:06:23;;;;;;;;;;;;;;;;;;4965018;28;5123;-59
2024/02/20 08:08:49;;;;;;;;;;;;;;;;;;4971580;28;1906;-58
2024/02/20 08:11:14;;;;;;;;;;;;;;;;;;4949121;28;5036;-60
2024/02/20 08:13:44;;;;;;;;;;;;;;;;;;4961646;28;4665;-59
2024/02/20 08:16:13;;;;;;;;;;;;;;;;;;4961998;28;5179;-61
2024/02/20 08:18:40;;;;;;;;;;;;;;;;;;4967363;28;5187;-58
2024/02/20 08:21:06;;;;;;;;;;;;;;;;;;4966348;28;3347;-62
2024/02/20 08:23:31;;;;;;;;;;;;;;;;;;4963157;28;5096;-62
2024/02/20 08:25:56;;;;;;;;;;;;;;;;;;4965618;28;4578;-60
2024/02/20 08:28:22;;;;;;;;;;;;;;;;;;4963587;28;4525;-61
2024/02/20 08:30:47;;;;;;;;;;;;;;;;;;4962372;28;5858;-60
2024/02/20 08:33:14;;;;;;;;;;;;;;;;;;4962218;28;5219;-60
2024/02/20 08:35:39;;;;;;;;;;;;;;;;;;4944837;28;3498;-63
2024/02/20 08:38:05;;;;;;;;;;;;;;;;;;4963107;28;4513;-59
2024/02/20 08:40:30;;;;;;;;;;;;;;;;;;4964971;28;4520;-61
2024/02/20 08:42:56;;;;;;;;;;;;;;;;;;4964382;28;5041;-61
2024/02/20 08:45:22;;;;;;;;;;;;;;;;;;4966383;28;5216;-64
2024/02/20 08:47:47;;;;;;;;;;;;;;;;;;4968731;28;3533;-57
2024/02/20 08:50:16;;;;;;;;;;;;;;;;;;4964730;28;5158;-58
2024/02/20 08:52:42;;;;;;;;;;;;;;;;;;4962744;28;5047;-59
2024/02/20 08:55:07;;;;;;;;;;;;;;;;;;4964240;28;5589;-61
2024/02/20 08:57:32;;;;;;;;;;;;;;;;;;4958558;28;5266;-59
2024/02/20 08:59:58;;;;;;;;;;;;;;;;;;4964003;28;3356;-59
2024/02/20 09:02:24;;;;;;;;;;;;;;;;;;4962917;28;5112;-59
2024/02/20 09:04:50;;;;;;;;;;;;;;;;;;4966836;28;4893;-59
2024/02/20 09:07:15;;;;;;;;;;;;;;;;;;4964372;28;4733;-60
2024/02/20 09:09:41;;;;;;;;;;;;;;;;;;4964208;28;4571;-58
2024/02/20 09:12:06;;;;;;;;;;;;;;;;;;4966871;28;3308;-64
2024/02/20 09:14:31;;;;;;;;;;;;;;;;;;4964460;28;4883;-60
2024/02/20 09:16:57;;;;;;;;;;;;;;;;;;4964476;28;4918;-59
2024/02/20 09:19:22;;;;;;;;;;;;;;;;;;4963655;28;4741;-60
2024/02/20 09:21:49;;;;;;;;;;;;;;;;;;4964013;28;5012;-60
2024/02/20 09:24:15;;;;;;;;;;;;;;;;;;4960932;28;5157;-63
2024/02/20 09:26:41;;;;;;;;;;;;;;;;;;4965621;28;3410;-60
2024/02/20 09:29:08;;;;;;;;;;;;;;;;;;4963192;28;4768;-64
2024/02/20 09:31:33;;;;;;;;;;;;;;;;;;4963936;28;5294;-59
2024/02/20 09:33:58;;;;;;;;;;;;;;;;;;4960981;28;4522;-59
2024/02/20 09:36:24;;;;;;;;;;;;;;;;;;4962950;28;4756;-59
2024/02/20 09:38:49;;;;;;;;;;;;;;;;;;4966649;28;3627;-59
2024/02/20 09:41:18;;;;;;;;;;;;;;;;;;4961626;28;5101;-58
2024/02/20 09:43:43;;;;;;;;;;;;;;;;;;4945602;28;5042;-60
2024/02/20 09:46:08;;;;;;;;;;;;;;;;;;4964696;28;5197;-60
2024/02/20 09:48:34;;;;;;;;;;;;;;;;;;4947443;28;5390;-63
2024/02/20 09:51:03;;;;;;;;;;;;;;;;;;4963948;28;3323;-59
2024/02/20 09:53:28;;;;;;;;;;;;;;;;;;4947828;28;5131;-62
2024/02/20 09:55:54;;;;;;;;;;;;;;;;;;4961765;28;4985;-62
2024/02/20 09:58:19;;;;;;;;;;;;;;;;;;4942184;28;5144;-60
2024/02/20 10:00:44;;;;;;;;;;;;;;;;;;4961940;28;4816;-60
2024/02/20 10:03:10;;;;;;;;;;;;;;;;;;4963410;28;3571;-60
2024/02/20 10:05:36;;;;;;;;;;;;;;;;;;4964021;28;4967;-62
2024/02/20 10:08:02;;;;;;;;;;;;;;;;;;4942409;28;5218;-62
2024/02/20 10:10:28;;;;;;;;;;;;;;;;;;4959160;28;4520;-59
2024/02/20 10:12:57;;;;;;;;;;;;;;;;;;4947013;28;4784;-60
2024/02/20 10:15:22;;;;;;;;;;;;;;;;;;4963402;28;6094;-61
2024/02/20 10:17:47;;;;;;;;;;;;;;;;;;4958513;28;3482;-61
2024/02/20 10:20:13;;;;;;;;;;;;;;;;;;4959822;28;5092;-60
2024/02/20 10:22:41;;;;;;;;;;;;;;;;;;4960729;28;4985;-60
2024/02/20 10:25:08;;;;;;;;;;;;;;;;;;4962053;28;5169;-60
2024/02/20 10:27:34;;;;;;;;;;;;;;;;;;4964988;28;5337;-62
2024/02/20 10:30:00;;;;;;;;;;;;;;;;;;4960256;28;4076;-61
2024/02/20 10:32:25;;;;;;;;;;;;;;;;;;4943960;28;4917;-60
2024/02/20 10:35:00;;;;;;;;;;;;;;;;;;4964579;28;5101;-59
2024/02/20 10:37:27;;;;;;;;;;;;;;;;;;4947494;28;5168;-61
2024/02/20 10:40:05;;;;;;;;;;;;;;;;;;4960341;28;4951;-63
2024/02/20 10:42:33;;;;;;;;;;;;;;;;;;4960327;28;5139;-60
2024/02/20 10:44:58;;;;;;;;;;;;;;;;;;4966559;28;3328;-60
2024/02/20 10:47:23;;;;;;;;;;;;;;;;;;4949784;28;5704;-61
2024/02/20 10:49:49;;;;;;;;;;;;;;;;;;4966663;28;4625;-60
2024/02/20 10:52:14;;;;;;;;;;;;;;;;;;4946467;28;4746;-60
2024/02/20 10:54:40;;;;;;;;;;;;;;;;;;4947417;28;4593;-61
2024/02/20 10:57:05;;;;;;;;;;;;;;;;;;4944389;28;3339;-61
2024/02/20 10:59:31;;;;;;;;;;;;;;;;;;4959516;28;5007;-59
2024/02/20 11:01:56;;;;;;;;;;;;;;;;;;4944317;28;5157;-60
2024/02/20 11:04:21;;;;;;;;;;;;;;;;;;4963746;28;4961;-59
2024/02/20 11:06:48;;;;;;;;;;;;;;;;;;4946307;28;5107;-60
2024/02/20 11:09:13;;;;;;;;;;;;;;;;;;4966268;28;4935;-60
2024/02/20 11:11:38;;;;;;;;;;;;;;;;;;4966868;28;3370;-59
2024/02/20 11:14:04;;;;;;;;;;;;;;;;;;4966753;28;4772;-59
2024/02/20 11:16:35;;;;;;;;;;;;;;;;;;4970899;28;5183;-58
2024/02/20 11:19:01;;;;;;;;;;;;;;;;;;4950924;28;4554;-60
2024/02/20 11:21:27;;;;;;;;;;;;;;;;;;4969885;28;5115;-61
2024/02/20 11:23:52;;;;;;;;;;;;;;;;;;4968676;28;1173;-62
2024/02/20 11:26:24;;;;;;;;;;;;;;;;;;4966991;28;5014;-61
2024/02/20 11:28:50;;;;;;;;;;;;;;;;;;4949105;28;5105;-61
2024/02/20 11:31:15;;;;;;;;;;;;;;;;;;4965858;28;5033;-61
2024/02/20 11:33:40;;;;;;;;;;;;;;;;;;4947498;28;4973;-60
2024/02/20 11:36:09;;;;;;;;;;;;;;;;;;4949697;28;3280;-61
2024/02/20 11:38:36;;;;;;;;;;;;;;;;;;4968058;28;4923;-61
2024/02/20 11:41:03;;;;;;;;;;;;;;;;;;4968387;28;5211;-62
2024/02/20 11:43:29;;;;;;;;;;;;;;;;;;4964580;28;5269;-64
2024/02/20 11:45:58;;;;;;;;;;;;;;;;;;4966499;28;5970;-60
2024/02/20 11:48:24;;;;;;;;;;;;;;;;;;4961999;28;5203;-60
2024/02/20 11:50:49;;;;;;;;;;;;;;;;;;4965261;28;3334;-60
2024/02/20 11:53:15;;;;;;;;;;;;;;;;;;4956199;28;4600;-62
2024/02/20 11:55:44;;;;;;;;;;;;;;;;;;4970121;28;5038;-59
2024/02/20 11:58:14;;;;;;;;;;;;;;;;;;4939486;28;4976;-60
2024/02/20 12:00:39;;;;;;;;;;;;;;;;;;4963505;28;4825;-59
2024/02/20 12:03:06;;;;;;;;;;;;;;;;;;4969408;28;3283;-65
2024/02/20 12:05:40;;;;;;;;;;;;;;;;;;4969285;28;4431;-60
2024/02/20 12:08:16;;;;;;;;;;;;;;;;;;4961694;28;4530;-59
2024/02/20 12:10:41;;;;;;;;;;;;;;;;;;4962161;28;4504;-61
2024/02/20 12:13:13;;;;;;;;;;;;;;;;;;4962791;28;5298;-60
2024/02/20 12:15:38;;;;;;;;;;;;;;;;;;4962353;28;5256;-60
2024/02/20 12:18:04;;;;;;;;;;;;;;;;;;4967832;28;3272;-60
2024/02/20 12:20:29;;;;;;;;;;;;;;;;;;4966687;28;4886;-59
2024/02/20 12:22:58;;;;;;;;;;;;;;;;;;4965044;28;5092;-60
2024/02/20 12:25:23;;;;;;;;;;;;;;;;;;4967469;28;5126;-59
2024/02/20 12:27:48;;;;;;;;;;;;;;;;;;4948447;28;5169;-59
2024/02/20 12:30:15;;;;;;;;;;;;;;;;;;4967842;28;4863;-61
2024/02/20 12:32:40;;;;;;;;;;;;;;;;;;4968906;28;3509;-60
2024/02/20 12:35:06;;;;;;;;;;;;;;;;;;4946865;28;5138;-60
2024/02/20 12:37:31;;;;;;;;;;;;;;;;;;4968471;28;4532;-60
2024/02/20 12:39:57;;;;;;;;;;;;;;;;;;4966063;28;5259;-59
2024/02/20 12:42:22;;;;;;;;;;;;;;;;;;4968331;28;5315;-62
2024/02/20 12:44:47;;;;;;;;;;;;;;;;;;4967649;28;3594;-59
2024/02/20 12:47:13;;;;;;;;;;;;;;;;;;4964514;28;5069;-59
2024/02/20 12:49:39;;;;;;;;;;;;;;;;;;4962058;28;4964;-59
2024/02/20 12:52:04;;;;;;;;;;;;;;;;;;4960204;28;5094;-60
2024/02/20 12:54:30;;;;;;;;;;;;;;;;;;4964407;28;5243;-61
2024/02/20 12:56:57;;;;;;;;;;;;;;;;;;4966774;28;3323;-63
2024/02/20 12:59:22;;;;;;;;;;;;;;;;;;4962685;28;5361;-61
2024/02/20 13:01:48;;;;;;;;;;;;;;;;;;4964613;28;4668;-60
2024/02/20 13:04:13;;;;;;;;;;;;;;;;;;4965573;28;5148;-59
2024/02/20 13:06:39;;;;;;;;;;;;;;;;;;4966694;28;4571;-59
2024/02/20 13:09:04;;;;;;;;;;;;;;;;;;4966118;28;3443;-60
2024/02/20 13:11:29;;;;;;;;;;;;;;;;;;4969314;28;5062;-59
2024/02/20 13:13:55;;;;;;;;;;;;;;;;;;4960937;28;5048;-61
2024/02/20 13:16:23;;;;;;;;;;;;;;;;;;4963263;28;4493;-59
2024/02/20 13:18:49;;;;;;;;;;;;;;;;;;4961363;28;5107;-60
2024/02/20 13:21:15;;;;;;;;;;;;;;;;;;4948905;28;5101;-64
2024/02/20 13:23:40;;;;;;;;;;;;;;;;;;4965112;28;3793;-61
2024/02/20 13:26:06;;;;;;;;;;;;;;;;;;4965125;28;5234;-61
2024/02/20 13:28:31;;;;;;;;;;;;;;;;;;4962720;28;4977;-61
2024/02/20 13:30:56;;;;;;;;;;;;;;;;;;4945692;28;4518;-59
2024/02/20 13:33:22;;;;;;;;;;;;;;;;;;4964815;28;5361;-61
2024/02/20 13:35:47;;;;;;;;;;;;;;;;;;4963725;28;3416;-60
2024/02/20 13:38:13;;;;;;;;;;;;;;;;;;4962028;28;4942;-59
2024/02/20 13:40:39;;;;;;;;;;;;;;;;;;4964959;28;5037;-64
2024/02/20 13:43:08;;;;;;;;;;;;;;;;;;4965080;28;5038;-60
2024/02/20 13:45:41;;;;;;;;;;;;;;;;;;4962793;28;5261;-62
2024/02/20 13:48:10;;;;;;;;;;;;;;;;;;4948832;28;3372;-63
2024/02/20 13:50:35;;;;;;;;;;;;;;;;;;4965823;28;5000;-60
2024/02/20 13:53:02;;;;;;;;;;;;;;;;;;4963367;28;5002;-61
2024/02/20 13:55:27;;;;;;;;;;;;;;;;;;4964934;28;4555;-60
2024/02/20 13:57:53;;;;;;;;;;;;;;;;;;4958532;28;4884;-60
2024/02/20 14:00:19;;;;;;;;;;;;;;;;;;4960220;28;5097;-60
2024/02/20 14:02:44;;;;;;;;;;;;;;;;;;4966975;28;3566;-62
2024/02/20 14:05:09;;;;;;;;;;;;;;;;;;4961167;28;5028;-61
2024/02/20 14:07:35;;;;;;;;;;;;;;;;;;4965315;28;5035;-65
2024/02/20 14:10:00;;;;;;;;;;;;;;;;;;4949793;28;5005;-60
2024/02/20 14:12:28;;;;;;;;;;;;;;;;;;4964341;28;5191;-60
2024/02/20 14:14:54;;;;;;;;;;;;;;;;;;4960638;28;3429;-60
2024/02/20 14:17:19;;;;;;;;;;;;;;;;;;4960909;28;5164;-60
2024/02/20 14:19:45;;;;;;;;;;;;;;;;;;4961699;28;5089;-61
2024/02/20 14:22:12;;;;;;;;;;;;;;;;;;4965836;28;5330;-59
2024/02/20 14:24:38;;;;;;;;;;;;;;;;;;4962614;28;4714;-63
2024/02/20 14:27:04;;;;;;;;;;;;;;;;;;4963542;28;3349;-66
2024/02/20 14:29:29;;;;;;;;;;;;;;;;;;4958519;28;5069;-60
2024/02/20 14:31:56;;;;;;;;;;;;;;;;;;4963950;28;5311;-59
2024/02/20 14:34:22;;;;;;;;;;;;;;;;;;4961457;28;5023;-61
2024/02/20 14:36:47;;;;;;;;;;;;;;;;;;4961542;28;4755;-62
2024/02/20 14:39:12;;;;;;;;;;;;;;;;;;4967133;28;3280;-60
2024/02/20 14:41:40;;;;;;;;;;;;;;;;;;4964583;28;5192;-61
2024/02/20 14:44:05;;;;;;;;;;;;;;;;;;4965893;28;5128;-65
2024/02/20 14:46:30;;;;;;;;;;;;;;;;;;4967702;28;4936;-61
2024/02/20 14:48:56;;;;;;;;;;;;;;;;;;4947261;28;5006;-61
2024/02/20 14:51:21;;;;;;;;;;;;;;;;;;4958400;28;4688;-63
2024/02/20 14:53:47;;;;;;;;;;;;;;;;;;4965679;28;3405;-63
2024/02/20 14:56:13;;;;;;;;;;;;;;;;;;4964118;28;5164;-60
2024/02/20 14:58:38;;;;;;;;;;;;;;;;;;4956063;28;5034;-61
2024/02/20 15:01:03;;;;;;;;;;;;;;;;;;4963264;28;5143;-59
2024/02/20 15:03:29;;;;;;;;;;;;;;;;;;4962173;28;5975;-60
2024/02/20 15:05:54;;;;;;;;;;;;;;;;;;4957851;28;3423;-60
2024/02/20 15:08:19;;;;;;;;;;;;;;;;;;4962685;28;4945;-61
2024/02/20 15:10:45;;;;;;;;;;;;;;;;;;4964657;28;4529;-60
2024/02/20 15:13:10;;;;;;;;;;;;;;;;;;4947242;28;4539;-59
2024/02/20 15:15:35;;;;;;;;;;;;;;;;;;4967409;28;5152;-61
2024/02/20 15:18:01;;;;;;;;;;;;;;;;;;4958932;28;3400;-60
2024/02/20 15:20:26;;;;;;;;;;;;;;;;;;4965219;28;4936;-60
2024/02/20 15:22:52;;;;;;;;;;;;;;;;;;4965983;28;5100;-59
2024/02/20 15:25:17;;;;;;;;;;;;;;;;;;4967485;28;5088;-59
2024/02/20 15:27:46;;;;;;;;;;;;;;;;;;4967028;28;5042;-60
2024/02/20 15:30:13;;;;;;;;;;;;;;;;;;4964051;28;3305;-60
2024/02/20 15:32:38;;;;;;;;;;;;;;;;;;4957272;28;5045;-62
2024/02/20 15:35:05;;;;;;;;;;;;;;;;;;4958264;28;5701;-61
2024/02/20 15:37:31;;;;;;;;;;;;;;;;;;4961752;28;4679;-63
2024/02/20 15:39:56;;;;;;;;;;;;;;;;;;4960815;28;5197;-62
2024/02/20 15:42:22;;;;;;;;;;;;;;;;;;4961513;28;4908;-62
2024/02/20 15:44:48;;;;;;;;;;;;;;;;;;4966559;28;3308;-60
2024/02/20 15:47:13;;;;;;;;;;;;;;;;;;4956464;28;4514;-61
2024/02/20 15:49:42;;;;;;;;;;;;;;;;;;4959062;28;4863;-61
2024/02/20 15:52:08;;;;;;;;;;;;;;;;;;4956547;28;5158;-61
2024/02/20 15:54:34;;;;;;;;;;;;;;;;;;4962765;28;5219;-61
2024/02/20 15:56:59;;;;;;;;;;;;;;;;;;4948349;28;3383;-60
2024/02/20 15:59:24;;;;;;;;;;;;;;;;;;4963149;28;4487;-60
2024/02/20 16:01:50;;;;;;;;;;;;;;;;;;4963818;28;5131;-60
2024/02/20 16:04:15;;;;;;;;;;;;;;;;;;4960235;28;4966;-60
2024/02/20 16:06:41;;;;;;;;;;;;;;;;;;4962647;28;5061;-59
2024/02/20 16:09:09;;;;;;;;;;;;;;;;;;4966727;28;3407;-61
2024/02/20 16:11:38;;;;;;;;;;;;;;;;;;4967859;28;4827;-62
2024/02/20 16:14:03;;;;;;;;;;;;;;;;;;4970121;28;5099;-60
2024/02/20 16:16:29;;;;;;;;;;;;;;;;;;4968159;28;5187;-61
2024/02/20 16:18:54;;;;;;;;;;;;;;;;;;4963632;28;4918;-59
2024/02/20 16:21:19;;;;;;;;;;;;;;;;;;4969947;28;4672;-60
2024/02/20 16:23:47;;;;;;;;;;;;;;;;;;4968688;28;3160;-61
2024/02/20 16:26:16;;;;;;;;;;;;;;;;;;4968415;28;4956;-61
2024/02/20 16:28:41;;;;;;;;;;;;;;;;;;4968341;28;4910;-62
2024/02/20 16:31:07;;;;;;;;;;;;;;;;;;4962562;28;5401;-60
2024/02/20 16:33:32;;;;;;;;;;;;;;;;;;4969008;28;5185;-62
2024/02/20 16:35:57;;;;;;;;;;;;;;;;;;4964688;28;1185;-61
2024/02/20 16:38:23;;;;;;;;;;;;;;;;;;4966260;28;4902;-60
2024/02/20 16:40:48;;;;;;;;;;;;;;;;;;4967018;28;5041;-61
2024/02/20 16:43:13;;;;;;;;;;;;;;;;;;4960953;28;5098;-60
2024/02/20 16:45:39;;;;;;;;;;;;;;;;;;4969461;28;4915;-59
2024/02/20 16:48:04;;;;;;;;;;;;;;;;;;4962953;28;3455;-60
2024/02/20 16:50:30;;;;;;;;;;;;;;;;;;4947138;28;5149;-60
2024/02/20 16:52:57;;;;;;;;;;;;;;;;;;4965809;28;5243;-60